Darrington, Washington
Current Conditions -  °F | °C
As of 4:15 AM on Sunday 25 Jan 2015 (Local Time) from KAWO Reporting Station
Overcast Overcast  
Wind Chill: 55°   Ceiling: 2700
Heat Index: 55°   Visibility: 10mi
Dew Point: 52°   Wind: 6mph
Humidity: 88%   Direction: 180°S
Pressure: 30.21"   Gusts: NA
Location:  48.26°N, 121.6°W
Report Text: KAWO 251215Z AUTO 18005KT 10SM FEW021 OVC027 13/11 A3021 RMK AO1
Loading
Personal Weather Stations






























Interactive Weather Map New forecast layout! Learn more

10-Day Weather Forecast

Advertisements
Track Severe Weather on mobile